Time;durP1;ratioP1;P1;durP2;ratioP2;P2;SDS_P1;SDS_P2;PMS_P1;PMS_P2;Temp;Humidity;BMP_temperature;BMP_pressure;BME280_temperature;BME280_humidity;BME280_pressure;Samples;Min_cycle;Max_cycle;Signal;HPM_P1;HPM_P2
2022/11/29 00:00:57;;;;;;;131.18;43.40;;;;;;;;;;4958897;28;20139;-67
2022/11/29 00:03:23;;;;;;;123.03;41.85;;;;;;;;;;4980791;28;20326;-67
2022/11/29 00:05:50;;;;;;;135.23;39.42;;;;;;;;;;4980060;28;20430;-67
2022/11/29 00:08:17;;;;;;;125.05;40.70;;;;;;;;;;4980681;28;21042;-67
2022/11/29 00:10:43;;;;;;;137.38;43.92;;;;;;;;;;4977944;28;20565;-66
2022/11/29 00:13:08;;;;;;;120.25;42.17;;;;;;;;;;4980702;28;20076;-66
2022/11/29 00:15:34;;;;;;;129.30;43.22;;;;;;;;;;4979204;28;20117;-67
2022/11/29 00:17:59;;;;;;;117.07;43.72;;;;;;;;;;4981476;28;20360;-67
2022/11/29 00:20:25;;;;;;;125.82;44.05;;;;;;;;;;4978696;28;20049;-67
2022/11/29 00:22:50;;;;;;;127.38;44.03;;;;;;;;;;4978932;28;20064;-67
2022/11/29 00:25:15;;;;;;;145.50;44.05;;;;;;;;;;4979147;28;20513;-67
2022/11/29 00:27:41;;;;;;;116.50;42.40;;;;;;;;;;4982104;28;20649;-67
2022/11/29 00:30:09;;;;;;;126.50;42.10;;;;;;;;;;4977342;28;20141;-67
2022/11/29 00:32:34;;;;;;;133.50;42.20;;;;;;;;;;4977364;28;20038;-67
2022/11/29 00:35:00;;;;;;;119.40;41.78;;;;;;;;;;4957982;28;20080;-67
2022/11/29 00:37:25;;;;;;;116.05;40.35;;;;;;;;;;4980109;28;20037;-67
2022/11/29 00:39:53;;;;;;;124.63;41.72;;;;;;;;;;4976926;28;20049;-68
2022/11/29 00:42:19;;;;;;;135.10;43.33;;;;;;;;;;4978151;28;20116;-67
2022/11/29 00:44:44;;;;;;;113.70;41.22;;;;;;;;;;4977892;28;20536;-68
2022/11/29 00:47:09;;;;;;;134.13;40.25;;;;;;;;;;4977825;28;20411;-67
2022/11/29 00:49:35;;;;;;;125.60;40.80;;;;;;;;;;4978070;28;20175;-67
2022/11/29 00:52:01;;;;;;;142.30;42.50;;;;;;;;;;4976032;28;20048;-67
2022/11/29 00:54:26;;;;;;;141.23;40.53;;;;;;;;;;4977890;28;20040;-68
2022/11/29 00:56:52;;;;;;;130.23;40.10;;;;;;;;;;4977315;28;20046;-67
2022/11/29 00:59:17;;;;;;;145.15;41.88;;;;;;;;;;4976221;28;20638;-67
2022/11/29 01:01:43;;;;;;;130.00;38.97;;;;;;;;;;5008043;28;20077;-67
2022/11/29 01:04:08;;;;;;;141.20;40.60;;;;;;;;;;4977938;28;20255;-67
2022/11/29 01:06:36;;;;;;;139.18;39.60;;;;;;;;;;4978399;28;20336;-67
2022/11/29 01:09:01;;;;;;;143.93;41.25;;;;;;;;;;4978712;28;20034;-67
2022/11/29 01:11:27;;;;;;;133.07;41.55;;;;;;;;;;4982079;28;20512;-67
2022/11/29 01:13:56;;;;;;;130.35;39.83;;;;;;;;;;4981155;28;20055;-67
2022/11/29 01:16:22;;;;;;;128.85;40.10;;;;;;;;;;4978909;28;20164;-67
2022/11/29 01:18:48;;;;;;;155.15;46.85;;;;;;;;;;4982506;28;20038;-67
2022/11/29 01:21:14;;;;;;;136.30;42.78;;;;;;;;;;4983371;28;20300;-67
2022/11/29 01:23:40;;;;;;;150.57;45.38;;;;;;;;;;5011076;28;20168;-67
2022/11/29 01:26:09;;;;;;;153.05;45.80;;;;;;;;;;4982596;28;20037;-67
2022/11/29 01:28:36;;;;;;;168.02;47.03;;;;;;;;;;4980795;28;20059;-67
2022/11/29 01:31:08;;;;;;;160.68;45.60;;;;;;;;;;4981944;28;20038;-67
2022/11/29 01:33:34;;;;;;;156.18;42.25;;;;;;;;;;4980652;28;21722;-67
2022/11/29 01:35:59;;;;;;;148.68;43.85;;;;;;;;;;4983046;28;20034;-68
2022/11/29 01:38:25;;;;;;;138.43;43.15;;;;;;;;;;4985668;28;20288;-68
2022/11/29 01:41:03;;;;;;;130.68;41.85;;;;;;;;;;5007543;28;20041;-68
2022/11/29 01:43:29;;;;;;;123.97;39.25;;;;;;;;;;5000729;28;20087;-68
2022/11/29 01:45:54;;;;;;;137.77;39.72;;;;;;;;;;4993266;28;20115;-68
2022/11/29 01:48:24;;;;;;;122.15;39.30;;;;;;;;;;4993785;28;20146;-68
2022/11/29 01:50:50;;;;;;;133.85;39.67;;;;;;;;;;5013514;28;20533;-68
2022/11/29 01:53:15;;;;;;;130.20;39.58;;;;;;;;;;4988441;28;20241;-67
2022/11/29 01:55:47;;;;;;;113.05;37.80;;;;;;;;;;4979739;28;20052;-68
2022/11/29 01:58:13;;;;;;;133.90;38.63;;;;;;;;;;4981127;28;20368;-67
2022/11/29 02:00:39;;;;;;;133.20;39.60;;;;;;;;;;4982501;28;20057;-68
2022/11/29 02:03:08;;;;;;;132.05;37.22;;;;;;;;;;4970703;28;20612;-67
2022/11/29 02:05:33;;;;;;;131.07;39.20;;;;;;;;;;4981511;28;22135;-68
2022/11/29 02:08:00;;;;;;;154.45;41.95;;;;;;;;;;4982518;28;20412;-67
2022/11/29 02:10:45;;;;;;;141.07;40.80;;;;;;;;;;4981832;28;20048;-67
2022/11/29 02:13:23;;;;;;;144.02;43.78;;;;;;;;;;4981062;28;20115;-67
2022/11/29 02:15:53;;;;;;;161.80;43.83;;;;;;;;;;4979902;28;20071;-68
2022/11/29 02:18:21;;;;;;;152.43;45.50;;;;;;;;;;4979608;28;20047;-68
2022/11/29 02:20:52;;;;;;;159.77;44.33;;;;;;;;;;4981274;28;21868;-67
2022/11/29 02:23:20;;;;;;;166.25;44.30;;;;;;;;;;4979074;28;20042;-67
2022/11/29 02:25:54;;;;;;;152.57;43.42;;;;;;;;;;4979724;28;20044;-68
2022/11/29 02:28:37;;;;;;;150.80;42.58;;;;;;;;;;4978704;28;20209;-68
2022/11/29 02:31:02;;;;;;;140.30;41.60;;;;;;;;;;4980758;28;22380;-68
2022/11/29 02:33:36;;;;;;;148.57;41.55;;;;;;;;;;4980902;28;20068;-67
2022/11/29 02:36:23;;;;;;;136.40;39.53;;;;;;;;;;4981719;28;20613;-68
2022/11/29 02:39:03;;;;;;;147.27;42.58;;;;;;;;;;4979048;28;20406;-67
2022/11/29 02:41:34;;;;;;;152.82;42.13;;;;;;;;;;4976656;28;20042;-67
2022/11/29 02:44:02;;;;;;;142.68;40.75;;;;;;;;;;4980506;28;20045;-67
2022/11/29 02:46:28;;;;;;;137.68;40.50;;;;;;;;;;4980798;28;20128;-69
2022/11/29 02:49:08;;;;;;;139.07;41.47;;;;;;;;;;4981572;28;20076;-69
2022/11/29 02:51:48;;;;;;;150.05;42.15;;;;;;;;;;4981963;28;20703;-69
2022/11/29 02:54:15;;;;;;;158.95;42.53;;;;;;;;;;4980462;28;20042;-69
2022/11/29 02:56:52;;;;;;;153.10;41.30;;;;;;;;;;5011925;28;20657;-69
2022/11/29 02:59:36;;;;;;;142.63;42.53;;;;;;;;;;4980158;28;20098;-69
2022/11/29 03:02:21;;;;;;;141.50;40.20;;;;;;;;;;4979681;28;20041;-68
2022/11/29 03:04:46;;;;;;;124.80;38.97;;;;;;;;;;4980948;28;20710;-69
2022/11/29 03:07:22;;;;;;;131.60;38.78;;;;;;;;;;4980811;28;20033;-69
2022/11/29 03:09:48;;;;;;;116.43;33.72;;;;;;;;;;4981065;28;20136;-69
2022/11/29 03:12:24;;;;;;;115.82;36.42;;;;;;;;;;4982011;28;20037;-69
2022/11/29 03:15:08;;;;;;;124.28;35.08;;;;;;;;;;4979855;28;21885;-69
2022/11/29 03:17:55;;;;;;;113.60;34.25;;;;;;;;;;4992410;28;20193;-69
2022/11/29 03:20:39;;;;;;;121.18;33.33;;;;;;;;;;4978396;28;20615;-69
2022/11/29 03:23:26;;;;;;;105.88;32.65;;;;;;;;;;4999768;28;20166;-69
2022/11/29 03:25:52;;;;;;;118.15;32.92;;;;;;;;;;4978908;28;20151;-69
2022/11/29 03:28:19;;;;;;;141.32;33.60;;;;;;;;;;5001944;28;20040;-68
2022/11/29 03:31:04;;;;;;;107.82;31.67;;;;;;;;;;4976963;28;20192;-69
2022/11/29 03:33:44;;;;;;;124.80;31.33;;;;;;;;;;4978593;28;20033;-68
2022/11/29 03:36:28;;;;;;;122.70;31.45;;;;;;;;;;5009891;28;20076;-68
2022/11/29 03:38:55;;;;;;;177.85;33.88;;;;;;;;;;4978774;28;20588;-69
2022/11/29 03:41:44;;;;;;;139.32;33.00;;;;;;;;;;4979282;28;20244;-68
2022/11/29 03:44:18;;;;;;;117.45;33.55;;;;;;;;;;4978823;28;20034;-68
2022/11/29 03:46:50;;;;;;;115.15;32.63;;;;;;;;;;4997131;28;20503;-69
2022/11/29 03:49:20;;;;;;;105.80;32.40;;;;;;;;;;4999353;28;20056;-69
2022/11/29 03:51:50;;;;;;;111.00;33.33;;;;;;;;;;4998012;28;20029;-70
2022/11/29 03:54:21;;;;;;;134.88;32.55;;;;;;;;;;4999391;28;20553;-70
2022/11/29 03:56:46;;;;;;;111.97;34.05;;;;;;;;;;4998959;28;20248;-69
2022/11/29 03:59:24;;;;;;;143.93;33.80;;;;;;;;;;5000139;28;20623;-69
2022/11/29 04:01:58;;;;;;;124.00;34.85;;;;;;;;;;4981346;28;20256;-69
2022/11/29 04:04:47;;;;;;;124.78;32.80;;;;;;;;;;4980464;28;20180;-69
2022/11/29 04:07:22;;;;;;;134.27;35.75;;;;;;;;;;4978306;28;20021;-69
2022/11/29 04:09:50;;;;;;;115.28;31.92;;;;;;;;;;4994730;28;20325;-69
2022/11/29 04:12:34;;;;;;;138.13;34.78;;;;;;;;;;4997932;28;20572;-69
2022/11/29 04:15:06;;;;;;;113.47;33.95;;;;;;;;;;4997707;28;20349;-69
2022/11/29 04:17:50;;;;;;;111.22;32.47;;;;;;;;;;4974484;28;20034;-69
2022/11/29 04:20:21;;;;;;;129.10;32.10;;;;;;;;;;4978071;28;20267;-69
2022/11/29 04:23:05;;;;;;;141.40;32.50;;;;;;;;;;4979562;28;20038;-69
2022/11/29 04:25:49;;;;;;;160.73;33.50;;;;;;;;;;4977838;28;20220;-69
2022/11/29 04:28:33;;;;;;;110.57;30.98;;;;;;;;;;4977117;28;20071;-69
2022/11/29 04:31:15;;;;;;;99.88;29.63;;;;;;;;;;5005577;28;20327;-69
2022/11/29 04:33:43;;;;;;;78.63;27.25;;;;;;;;;;4978613;28;20573;-69
2022/11/29 04:36:28;;;;;;;80.97;26.67;;;;;;;;;;4978361;28;20737;-69
2022/11/29 04:39:00;;;;;;;79.22;26.67;;;;;;;;;;4997542;28;20465;-69
2022/11/29 04:41:44;;;;;;;66.80;24.70;;;;;;;;;;4997215;28;20269;-69
2022/11/29 04:44:14;;;;;;;73.80;26.63;;;;;;;;;;4997973;28;20272;-69
2022/11/29 04:47:04;;;;;;;79.63;24.73;;;;;;;;;;4984923;28;20250;-69
2022/11/29 04:49:35;;;;;;;90.57;25.23;;;;;;;;;;4970381;28;20475;-69
2022/11/29 04:52:04;;;;;;;93.77;26.10;;;;;;;;;;4979724;28;20125;-69
2022/11/29 04:55:08;;;;;;;60.72;22.92;;;;;;;;;;4976533;28;21025;-69
2022/11/29 04:57:40;;;;;;;71.63;24.30;;;;;;;;;;4954564;28;20045;-69
2022/11/29 05:00:09;;;;;;;71.88;21.88;;;;;;;;;;4955820;28;20041;-69
2022/11/29 05:02:47;;;;;;;76.00;22.33;;;;;;;;;;4968378;28;21703;-69
2022/11/29 05:05:31;;;;;;;86.50;22.05;;;;;;;;;;4978379;28;20501;-69
2022/11/29 05:08:15;;;;;;;66.80;21.52;;;;;;;;;;4979486;28;20048;-69
2022/11/29 05:10:48;;;;;;;71.63;21.95;;;;;;;;;;4972593;28;20755;-69
2022/11/29 05:13:32;;;;;;;66.13;19.63;;;;;;;;;;4975640;28;20045;-69
2022/11/29 05:16:00;;;;;;;65.93;20.23;;;;;;;;;;4976805;28;20163;-69
2022/11/29 05:18:28;;;;;;;56.60;18.75;;;;;;;;;;4993882;28;20042;-69
2022/11/29 05:21:06;;;;;;;62.42;18.83;;;;;;;;;;4976044;28;20083;-69
2022/11/29 05:23:38;;;;;;;52.03;19.00;;;;;;;;;;4975777;28;20036;-69
2022/11/29 05:26:03;;;;;;;;;;;;;;;;;;4975511;28;20259;-69
2022/11/29 05:28:31;;;;;;;62.35;19.27;;;;;;;;;;4978405;28;19952;-69
2022/11/29 05:31:10;;;;;;;63.67;20.00;;;;;;;;;;4977562;28;20136;-69
2022/11/29 05:33:44;;;;;;;47.58;19.00;;;;;;;;;;4959832;28;20688;-69
2022/11/29 05:36:22;;;;;;;68.72;20.00;;;;;;;;;;4976958;28;20159;-69
2022/11/29 05:39:06;;;;;;;64.47;20.20;;;;;;;;;;4979208;28;20057;-69
2022/11/29 05:41:52;;;;;;;69.93;20.98;;;;;;;;;;4978700;28;20848;-69
2022/11/29 05:44:36;;;;;;;49.78;18.77;;;;;;;;;;4977582;28;20495;-69
2022/11/29 05:47:05;;;;;;;42.85;16.73;;;;;;;;;;4976676;28;20079;-68
2022/11/29 05:49:30;;;;;;;56.25;18.83;;;;;;;;;;4972961;28;20083;-69
2022/11/29 05:52:19;;;;;;;64.32;18.63;;;;;;;;;;5004866;28;20041;-69
2022/11/29 05:55:03;;;;;;;45.65;16.70;;;;;;;;;;4984652;28;20128;-69
2022/11/29 05:57:44;;;;;;;49.08;18.23;;;;;;;;;;4984341;28;20191;-69
2022/11/29 06:00:10;;;;;;;67.80;19.50;;;;;;;;;;4979432;28;20540;-69
2022/11/29 06:02:45;;;;;;;47.97;17.80;;;;;;;;;;4982920;28;21992;-69
2022/11/29 06:05:12;;;;;;;60.95;18.50;;;;;;;;;;4976799;28;20048;-69
2022/11/29 06:07:56;;;;;;;59.00;17.33;;;;;;;;;;4990787;28;20074;-68
2022/11/29 06:10:27;;;;;;;65.45;18.88;;;;;;;;;;4991482;28;20477;-69
2022/11/29 06:13:07;;;;;;;61.60;18.35;;;;;;;;;;4997479;28;20437;-69
2022/11/29 06:15:35;;;;;;;41.97;17.30;;;;;;;;;;5000721;28;20142;-69
2022/11/29 06:18:22;;;;;;;49.75;18.48;;;;;;;;;;4996703;28;20123;-69
2022/11/29 06:20:50;;;;;;;44.45;16.90;;;;;;;;;;4981744;28;20056;-67
2022/11/29 06:23:19;;;;;;;58.00;19.27;;;;;;;;;;4980898;28;20172;-68
2022/11/29 06:25:46;;;;;;;48.42;17.67;;;;;;;;;;4973247;28;20037;-68
2022/11/29 06:28:21;;;;;;;49.95;18.17;;;;;;;;;;4978536;28;20046;-68
2022/11/29 06:31:07;;;;;;;46.97;18.80;;;;;;;;;;4980357;28;20049;-68
2022/11/29 06:33:32;;;;;;;37.15;15.50;;;;;;;;;;4981696;28;20092;-68
2022/11/29 06:36:04;;;;;;;38.85;17.33;;;;;;;;;;4983871;28;20124;-69
2022/11/29 06:38:30;;;;;;;53.42;18.33;;;;;;;;;;5004409;28;20046;-68
2022/11/29 06:40:58;;;;;;;59.47;19.45;;;;;;;;;;4979434;28;20111;-68
2022/11/29 06:43:27;;;;;;;47.13;18.42;;;;;;;;;;4978917;28;20060;-68
2022/11/29 06:45:58;;;;;;;48.20;17.58;;;;;;;;;;4975270;28;20036;-68
2022/11/29 06:48:27;;;;;;;46.20;16.65;;;;;;;;;;4979423;28;20548;-68
2022/11/29 06:50:59;;;;;;;50.10;17.05;;;;;;;;;;4978820;28;20042;-68
2022/11/29 06:53:48;;;;;;;43.63;17.33;;;;;;;;;;4979887;28;20041;-68
2022/11/29 06:56:17;;;;;;;44.28;15.88;;;;;;;;;;4976105;28;20129;-68
2022/11/29 06:58:42;;;;;;;44.25;16.58;;;;;;;;;;4979494;28;20756;-68
2022/11/29 07:01:19;;;;;;;44.83;15.98;;;;;;;;;;4976778;28;20282;-68
2022/11/29 07:03:45;;;;;;;37.22;14.20;;;;;;;;;;4977579;28;20046;-68
2022/11/29 07:06:18;;;;;;;33.03;15.55;;;;;;;;;;4975876;28;20124;-68
2022/11/29 07:08:44;;;;;;;34.92;14.73;;;;;;;;;;4976621;28;20202;-68
2022/11/29 07:11:14;;;;;;;35.63;15.60;;;;;;;;;;4976557;28;20069;-68
2022/11/29 07:13:40;;;;;;;40.75;15.82;;;;;;;;;;4974081;28;20033;-68
2022/11/29 07:16:20;;;;;;;37.75;14.88;;;;;;;;;;4979774;28;20062;-68
2022/11/29 07:18:51;;;;;;;35.33;14.93;;;;;;;;;;4977581;28;20029;-68
2022/11/29 07:21:22;;;;;;;37.00;14.77;;;;;;;;;;4980061;28;20753;-69
2022/11/29 07:23:56;;;;;;;42.88;15.05;;;;;;;;;;4976794;28;20037;-68
2022/11/29 07:26:34;;;;;;;38.40;14.23;;;;;;;;;;4977316;28;20056;-68
2022/11/29 07:28:59;;;;;;;40.65;13.20;;;;;;;;;;4977990;28;20051;-68
2022/11/29 07:31:43;;;;;;;32.72;13.57;;;;;;;;;;4976414;28;20506;-68
2022/11/29 07:34:11;;;;;;;40.22;13.25;;;;;;;;;;4978812;28;20396;-68
2022/11/29 07:36:47;;;;;;;36.65;13.40;;;;;;;;;;4979321;28;20068;-68
2022/11/29 07:39:21;;;;;;;43.55;14.05;;;;;;;;;;4976833;28;20142;-68
2022/11/29 07:41:55;;;;;;;37.95;14.10;;;;;;;;;;4976560;28;20048;-69
2022/11/29 07:44:24;;;;;;;43.85;14.07;;;;;;;;;;4975604;28;20766;-68
2022/11/29 07:46:49;;;;;;;44.13;14.40;;;;;;;;;;4976947;28;20156;-68
2022/11/29 07:49:16;;;;;;;40.10;14.02;;;;;;;;;;4975742;28;20029;-68
2022/11/29 07:51:42;;;;;;;37.45;13.65;;;;;;;;;;4975792;28;20029;-68
2022/11/29 07:54:08;;;;;;;43.75;14.63;;;;;;;;;;4999787;28;20740;-68
2022/11/29 07:56:34;;;;;;;50.35;14.55;;;;;;;;;;4980943;28;20025;-68
2022/11/29 07:58:59;;;;;;;68.68;16.35;;;;;;;;;;4980513;28;20037;-68
2022/11/29 08:01:25;;;;;;;78.53;17.40;;;;;;;;;;4980214;28;20049;-68
2022/11/29 08:03:50;;;;;;;63.63;15.95;;;;;;;;;;4980552;28;20466;-68
2022/11/29 08:06:21;;;;;;;75.28;16.75;;;;;;;;;;4980125;28;20060;-68
2022/11/29 08:08:47;;;;;;;68.90;17.47;;;;;;;;;;4980231;28;20065;-68
2022/11/29 08:11:12;;;;;;;72.65;17.27;;;;;;;;;;4979396;28;20053;-68
2022/11/29 08:13:37;;;;;;;60.58;16.90;;;;;;;;;;4980935;28;20451;-68
2022/11/29 08:16:03;;;;;;;80.22;16.75;;;;;;;;;;4980239;28;20292;-68
2022/11/29 08:18:28;;;;;;;58.63;16.98;;;;;;;;;;4980696;28;20060;-68
2022/11/29 08:20:53;;;;;;;78.35;18.52;;;;;;;;;;4977981;28;22019;-68
2022/11/29 08:23:19;;;;;;;62.58;18.00;;;;;;;;;;4978263;28;20509;-68
2022/11/29 08:25:44;;;;;;;88.32;17.30;;;;;;;;;;4978752;28;20970;-68
2022/11/29 08:28:10;;;;;;;67.55;16.52;;;;;;;;;;4981894;28;20179;-69
2022/11/29 08:30:35;;;;;;;101.22;21.10;;;;;;;;;;4995544;28;20041;-70
2022/11/29 08:33:01;;;;;;;71.45;19.05;;;;;;;;;;4992956;28;20140;-68
2022/11/29 08:35:26;;;;;;;84.10;20.42;;;;;;;;;;4998349;28;20056;-68
2022/11/29 08:37:53;;;;;;;76.60;20.52;;;;;;;;;;4997817;28;20087;-68
2022/11/29 08:40:18;;;;;;;77.15;21.83;;;;;;;;;;5024063;28;20045;-67
2022/11/29 08:42:43;;;;;;;69.43;19.45;;;;;;;;;;4981791;28;20168;-68
2022/11/29 08:45:09;;;;;;;66.40;19.17;;;;;;;;;;4982287;28;20136;-68
2022/11/29 08:47:35;;;;;;;63.22;18.88;;;;;;;;;;4977458;28;20041;-67
2022/11/29 08:50:13;;;;;;;83.55;20.02;;;;;;;;;;4999088;28;20551;-67
2022/11/29 08:55:27;;;;;;;82.57;21.75;;;;;;;;;;4999089;28;20713;-67
2022/11/29 08:57:58;;;;;;;50.35;18.70;;;;;;;;;;5001080;28;20060;-68
2022/11/29 09:00:24;;;;;;;51.72;18.92;;;;;;;;;;4999631;28;20053;-67
2022/11/29 09:02:49;;;;;;;61.80;19.08;;;;;;;;;;5000322;28;20267;-67
2022/11/29 09:05:15;;;;;;;49.95;20.45;;;;;;;;;;4994227;28;20430;-68
2022/11/29 09:07:40;;;;;;;53.95;19.98;;;;;;;;;;4979250;28;20521;-68
2022/11/29 09:10:07;;;;;;;56.88;20.52;;;;;;;;;;4978517;28;20075;-68
2022/11/29 09:12:33;;;;;;;49.92;18.27;;;;;;;;;;4979709;28;20065;-68
2022/11/29 09:14:58;;;;;;;56.83;18.55;;;;;;;;;;4979146;28;20050;-68
2022/11/29 09:17:26;;;;;;;46.22;18.15;;;;;;;;;;4980040;28;20133;-68
2022/11/29 09:19:51;;;;;;;48.30;18.23;;;;;;;;;;4979423;28;20071;-68
2022/11/29 09:22:16;;;;;;;47.60;17.38;;;;;;;;;;4980521;28;20786;-68
2022/11/29 09:24:41;;;;;;;45.78;17.77;;;;;;;;;;4979303;28;20034;-69
2022/11/29 09:27:07;;;;;;;42.00;18.73;;;;;;;;;;4980217;28;20150;-68
2022/11/29 09:29:32;;;;;;;44.67;19.13;;;;;;;;;;4979721;28;20038;-68
2022/11/29 09:31:58;;;;;;;44.05;19.25;;;;;;;;;;4984620;28;20065;-68
2022/11/29 09:34:23;;;;;;;46.50;19.83;;;;;;;;;;4982992;28;20037;-68
2022/11/29 09:36:48;;;;;;;46.40;18.52;;;;;;;;;;4983569;28;20551;-68
2022/11/29 09:39:17;;;;;;;42.05;18.77;;;;;;;;;;4976929;28;20033;-68
2022/11/29 09:41:57;;;;;;;39.75;18.83;;;;;;;;;;4982621;28;20298;-68
2022/11/29 09:44:37;;;;;;;43.58;19.73;;;;;;;;;;4980948;28;20202;-68
2022/11/29 09:47:14;;;;;;;43.75;18.52;;;;;;;;;;4978566;28;20055;-69
2022/11/29 09:49:41;;;;;;;45.53;19.60;;;;;;;;;;5002375;28;20063;-68
2022/11/29 09:52:19;;;;;;;42.88;18.83;;;;;;;;;;4997894;28;20324;-67
2022/11/29 09:54:50;;;;;;;51.13;21.00;;;;;;;;;;5001159;28;20092;-68
2022/11/29 09:57:22;;;;;;;42.58;20.33;;;;;;;;;;5003337;28;20583;-68
2022/11/29 09:59:53;;;;;;;36.13;18.10;;;;;;;;;;4999709;28;20493;-68
2022/11/29 10:02:48;;;;;;;38.17;18.02;;;;;;;;;;4999688;28;20033;-67
2022/11/29 10:05:21;;;;;;;36.10;18.08;;;;;;;;;;4984255;28;20040;-68
2022/11/29 10:07:59;;;;;;;42.08;18.42;;;;;;;;;;5003265;28;22192;-68
2022/11/29 10:10:31;;;;;;;39.83;17.48;;;;;;;;;;5002865;28;20517;-68
2022/11/29 10:13:24;;;;;;;37.95;16.90;;;;;;;;;;5003455;28;20022;-68
2022/11/29 10:15:55;;;;;;;33.03;16.83;;;;;;;;;;4997613;28;20118;-68
2022/11/29 10:18:26;;;;;;;39.00;17.50;;;;;;;;;;5002575;28;20295;-68
2022/11/29 10:20:57;;;;;;;40.30;17.38;;;;;;;;;;4990918;28;20333;-68
2022/11/29 10:23:25;;;;;;;34.85;16.25;;;;;;;;;;4983172;28;20491;-68
2022/11/29 10:25:57;;;;;;;33.78;16.67;;;;;;;;;;4984250;28;20037;-69
2022/11/29 10:28:31;;;;;;;31.85;16.08;;;;;;;;;;5001307;28;20068;-68
2022/11/29 10:31:20;;;;;;;36.50;16.08;;;;;;;;;;4980458;28;20274;-68
2022/11/29 10:33:45;;;;;;;34.85;15.52;;;;;;;;;;4983213;28;20111;-68
2022/11/29 10:36:15;;;;;;;30.42;13.68;;;;;;;;;;4982328;28;20344;-68
2022/11/29 10:38:43;;;;;;;30.58;14.57;;;;;;;;;;4993425;28;21107;-71
2022/11/29 10:41:09;;;;;;;34.28;14.63;;;;;;;;;;4976016;28;20649;-68
2022/11/29 10:43:36;;;;;;;30.35;14.52;;;;;;;;;;4983299;28;20623;-68
2022/11/29 10:46:02;;;;;;;32.47;13.48;;;;;;;;;;4982138;28;20056;-68
2022/11/29 10:48:32;;;;;;;25.25;13.07;;;;;;;;;;4982607;28;20502;-68
2022/11/29 10:50:57;;;;;;;29.38;13.98;;;;;;;;;;4972312;28;20168;-67
2022/11/29 10:53:34;;;;;;;30.90;13.50;;;;;;;;;;4978932;28;20056;-68
2022/11/29 10:56:02;;;;;;;27.13;13.60;;;;;;;;;;4982766;28;20140;-68
2022/11/29 10:58:28;;;;;;;27.75;12.93;;;;;;;;;;4982542;28;20037;-68
2022/11/29 11:00:56;;;;;;;31.15;12.48;;;;;;;;;;4997957;28;20334;-68
2022/11/29 11:03:41;;;;;;;26.90;12.27;;;;;;;;;;4981223;28;20033;-68
2022/11/29 11:06:09;;;;;;;25.55;10.52;;;;;;;;;;4979055;28;20042;-68
2022/11/29 11:08:36;;;;;;;25.70;10.75;;;;;;;;;;4978140;28;20030;-67
2022/11/29 11:11:03;;;;;;;25.95;10.68;;;;;;;;;;4982300;28;20117;-68
2022/11/29 11:13:31;;;;;;;24.55;10.07;;;;;;;;;;5013339;28;20037;-68
2022/11/29 11:15:58;;;;;;;30.48;11.13;;;;;;;;;;4984614;28;20041;-67
2022/11/29 11:18:27;;;;;;;26.05;9.77;;;;;;;;;;4976344;28;20026;-68
2022/11/29 11:20:53;;;;;;;23.60;9.68;;;;;;;;;;4980452;28;20087;-70
2022/11/29 11:23:21;;;;;;;22.25;9.60;;;;;;;;;;4982972;28;20484;-69
2022/11/29 11:25:49;;;;;;;29.58;10.88;;;;;;;;;;4981764;28;20043;-70
2022/11/29 11:28:22;;;;;;;34.83;11.23;;;;;;;;;;4982654;28;20045;-70
2022/11/29 11:30:53;;;;;;;30.13;13.43;;;;;;;;;;4981071;28;20952;-70
2022/11/29 11:33:25;;;;;;;30.52;11.80;;;;;;;;;;4983320;28;20030;-70
2022/11/29 11:36:10;;;;;;;32.75;11.32;;;;;;;;;;4983031;28;20037;-68
2022/11/29 11:38:46;;;;;;;25.52;9.80;;;;;;;;;;4980935;28;20038;-68
2022/11/29 11:41:21;;;;;;;23.92;8.82;;;;;;;;;;4997955;28;20040;-68
2022/11/29 11:43:58;;;;;;;25.50;8.60;;;;;;;;;;5000380;28;20037;-68
2022/11/29 11:46:45;;;;;;;23.67;8.35;;;;;;;;;;4979742;28;20037;-69
2022/11/29 11:49:11;;;;;;;21.45;7.90;;;;;;;;;;4980330;28;20063;-68
2022/11/29 11:51:40;;;;;;;26.75;8.82;;;;;;;;;;4979257;28;20184;-67
2022/11/29 11:54:12;;;;;;;26.38;8.45;;;;;;;;;;4976422;28;20036;-68
2022/11/29 11:56:37;;;;;;;23.65;9.52;;;;;;;;;;4981927;28;20068;-67
2022/11/29 11:59:12;;;;;;;21.33;7.50;;;;;;;;;;4999550;28;20048;-67
2022/11/29 12:01:37;;;;;;;25.38;7.60;;;;;;;;;;4983262;28;20255;-67
2022/11/29 12:04:03;;;;;;;23.15;7.38;;;;;;;;;;4978975;28;20030;-66
2022/11/29 12:06:47;;;;;;;26.42;7.60;;;;;;;;;;4981629;28;20072;-67
2022/11/29 12:09:18;;;;;;;21.85;6.43;;;;;;;;;;4979884;28;20042;-66
2022/11/29 12:11:46;;;;;;;21.38;5.35;;;;;;;;;;4979524;28;20037;-66
2022/11/29 12:14:22;;;;;;;17.20;5.00;;;;;;;;;;4979041;28;20037;-66
2022/11/29 12:16:48;;;;;;;24.45;4.78;;;;;;;;;;4981375;28;20034;-68
2022/11/29 12:19:23;;;;;;;23.60;5.50;;;;;;;;;;4983433;28;20036;-68
2022/11/29 12:21:51;;;;;;;19.92;5.43;;;;;;;;;;4980952;28;20308;-68
2022/11/29 12:24:36;;;;;;;17.42;4.85;;;;;;;;;;4979241;28;20045;-68
2022/11/29 12:27:03;;;;;;;25.08;5.20;;;;;;;;;;4980138;28;20041;-69
2022/11/29 12:29:31;;;;;;;19.77;4.30;;;;;;;;;;4977627;28;20044;-68
2022/11/29 12:32:09;;;;;;;16.98;3.85;;;;;;;;;;4980664;28;20041;-68
2022/11/29 12:34:37;;;;;;;21.92;5.45;;;;;;;;;;4979889;28;20044;-66
2022/11/29 12:37:25;;;;;;;19.33;4.13;;;;;;;;;;4978647;28;20037;-68
2022/11/29 12:40:10;;;;;;;16.08;4.28;;;;;;;;;;4991130;28;20445;-67
2022/11/29 12:42:35;;;;;;;18.98;4.35;;;;;;;;;;4977280;28;20417;-68
2022/11/29 12:45:03;;;;;;;16.45;4.15;;;;;;;;;;4976677;28;20111;-67
2022/11/29 12:47:35;;;;;;;16.25;3.78;;;;;;;;;;4977286;28;20099;-65
2022/11/29 12:50:06;;;;;;;15.77;4.07;;;;;;;;;;4997457;28;20037;-67
2022/11/29 12:52:39;;;;;;;15.40;4.00;;;;;;;;;;4997778;28;20250;-67
2022/11/29 12:55:22;;;;;;;16.17;4.38;;;;;;;;;;5009988;28;20054;-67
2022/11/29 12:58:00;;;;;;;23.35;4.60;;;;;;;;;;4996399;28;20033;-67
2022/11/29 13:00:31;;;;;;;15.48;3.88;;;;;;;;;;4996865;28;20060;-67
2022/11/29 13:03:00;;;;;;;16.00;3.80;;;;;;;;;;5026898;28;21884;-67
2022/11/29 13:05:49;;;;;;;19.85;3.60;;;;;;;;;;4997421;28;20390;-68
2022/11/29 13:08:33;;;;;;;17.23;3.40;;;;;;;;;;5000143;28;20029;-68
2022/11/29 13:11:11;;;;;;;10.95;3.03;;;;;;;;;;5001387;28;20472;-68
2022/11/29 13:13:44;;;;;;;14.93;3.40;;;;;;;;;;5000364;28;20103;-68
2022/11/29 13:16:15;;;;;;;16.10;3.45;;;;;;;;;;5001623;28;20068;-68
2022/11/29 13:18:47;;;;;;;14.75;3.20;;;;;;;;;;5000937;28;20474;-67
2022/11/29 13:21:13;;;;;;;;;;;;;;;;;;5000359;28;20155;-67
2022/11/29 13:23:42;;;;;;;20.02;4.07;;;;;;;;;;5001270;28;19919;-67
2022/11/29 13:26:09;;;;;;;17.48;3.65;;;;;;;;;;5000066;28;20074;-67
2022/11/29 13:28:37;;;;;;;15.00;3.13;;;;;;;;;;4978256;28;20034;-67
2022/11/29 13:31:22;;;;;;;11.02;2.65;;;;;;;;;;4982098;28;20042;-67
2022/11/29 13:34:05;;;;;;;13.25;3.22;;;;;;;;;;4981756;28;20985;-67
2022/11/29 13:36:41;;;;;;;16.48;3.15;;;;;;;;;;4981751;28;20607;-67
2022/11/29 13:39:18;;;;;;;11.80;3.08;;;;;;;;;;4977881;28;20237;-67
2022/11/29 13:41:49;;;;;;;11.38;3.00;;;;;;;;;;4980473;28;20427;-67
2022/11/29 13:44:25;;;;;;;18.30;3.13;;;;;;;;;;5000908;28;20406;-67
2022/11/29 13:47:03;;;;;;;15.52;3.53;;;;;;;;;;5002477;28;20041;-67
2022/11/29 13:49:47;;;;;;;14.30;2.97;;;;;;;;;;5001682;28;20033;-64
2022/11/29 13:52:32;;;;;;;11.70;2.67;;;;;;;;;;5003769;28;22200;-65
2022/11/29 13:55:04;;;;;;;15.30;3.45;;;;;;;;;;4986345;28;20683;-65
2022/11/29 13:57:46;;;;;;;15.10;3.05;;;;;;;;;;4982752;28;20041;-65
2022/11/29 14:00:41;;;;;;;20.17;3.60;;;;;;;;;;5012942;28;20037;-66
2022/11/29 14:03:18;;;;;;;18.63;3.28;;;;;;;;;;4980660;28;20049;-65
2022/11/29 14:05:48;;;;;;;11.25;2.60;;;;;;;;;;4977570;28;20546;-67
2022/11/29 14:08:32;;;;;;;22.25;3.47;;;;;;;;;;5011456;28;20620;-65
2022/11/29 14:11:01;;;;;;;15.90;3.70;;;;;;;;;;4978422;28;20033;-65
2022/11/29 14:13:30;;;;;;;13.07;2.90;;;;;;;;;;4963413;28;20296;-65
2022/11/29 14:15:57;;;;;;;16.83;3.83;;;;;;;;;;4982524;28;20485;-65
2022/11/29 14:18:40;;;;;;;11.70;3.53;;;;;;;;;;4979637;28;20037;-66
2022/11/29 14:21:06;;;;;;;12.20;2.90;;;;;;;;;;4980448;28;20090;-68
2022/11/29 14:23:39;;;;;;;21.27;4.88;;;;;;;;;;4983100;28;20034;-67
2022/11/29 14:26:04;;;;;;;15.70;4.00;;;;;;;;;;4983838;28;20937;-68
2022/11/29 14:28:30;;;;;;;16.33;3.50;;;;;;;;;;4984452;28;20037;-68
2022/11/29 14:30:56;;;;;;;16.35;3.97;;;;;;;;;;4980927;28;20041;-68
2022/11/29 14:33:26;;;;;;;15.88;3.35;;;;;;;;;;4982501;28;20072;-67
2022/11/29 14:36:00;;;;;;;16.20;4.00;;;;;;;;;;4979885;28;20132;-68
2022/11/29 14:38:37;;;;;;;15.10;3.45;;;;;;;;;;4980995;28;20045;-67
2022/11/29 14:41:13;;;;;;;13.90;4.15;;;;;;;;;;5001547;28;21018;-66
2022/11/29 14:43:40;;;;;;;18.83;3.92;;;;;;;;;;5001729;28;20044;-67
2022/11/29 14:46:14;;;;;;;15.90;3.47;;;;;;;;;;4999115;28;20069;-67